Rake, Iowa
Current Conditions -  °F | °C
As of 8:55 AM on Saturday 20 Dec 2014 (Local Time) from KFXY Reporting Station
Haze Haze  
Wind Chill: -3°   Ceiling: 500
Heat Index:   Visibility: 5mi
Dew Point: -1°   Wind: 6mph
Humidity: 93%   Direction: 160°SSE
Pressure: 30.14"   Gusts: NA
Location:  43.48°N, 93.92°W
Report Text: KFXY 201455Z AUTO 16005KT 5SM BR BKN005 OVC015 00/M01 A3014 RMK AO2
Loading
Personal Weather Stations






























Interactive Weather Map New forecast layout! Learn more

10-Day Weather Forecast

Advertisements
Track Severe Weather on mobile